Nearby METAR Reports

 

K2W6 - St Marys (duke), Maryland, USA
Distance from station: ESE 19mi, 31km
Updated: Wed, 22-Jan-2020 8:47am EST
Clear
Clear
 Wind from NW
Wind: NW 3 mph , 6 km/h
Temperature: 28°F , -2°C
Dew Point: 19°F , -7°C
Humidity: 69%
Barometer: 30.54 inHg , 1034.2 hPa
Clouds: Clear
2020/01/22 13:47 K2W6 221347Z AUTO 31003KT CLR M02/M07 A3054 RMK AO1
KADW - Andrews Afb, Maryland, USA
Distance from station: 0 27mi, 43km
Updated: Wed, 22-Jan-2020 8:56am EST
Clear
Clear
 Wind from calm
Wind: Calm
Temperature: 27°F , -3°C
Dew Point: 14°F , -10°C
Humidity: 59%
Barometer: 30.51 inHg , 1033.2 hPa
Clouds: Clear
Visibility: 10 miles , 16 km
2020/01/22 13:56 KADW 221356Z AUTO 00000KT 10SM CLR M03/M10 A3051 RMK AO2 SLP343 T10281097 $
 
KNHK - Patuxent River, Maryland, USA
Distance from station: ESE 28mi, 45km
Updated: Wed, 22-Jan-2020 7:52am EST
Clear
Clear
 Wind from WNW
Wind: WNW 7 mph , 11 km/h
Temperature: 27°F , -3°C
Wind Chill: 19°F , -7°C
Dew Point: 21°F , -6°C
Humidity: 80%
Barometer: 30.51 inHg , 1033.2 hPa
Clouds: Clear
Visibility: 10 miles , 16 km
2020/01/22 12:52 KNHK 221252Z 29006KT 10SM CLR M03/M06 A3051 RMK AO2 SLP331 T10281056
KDCA - Washington/Natl, Washington D.c., USA
Distance from station: NNW 30mi, 49km
Updated: Wed, 22-Jan-2020 8:52am EST
Clear
Clear
 Wind from N
Wind: N 7 mph , 11 km/h
Temperature: 30°F , -1°C
Wind Chill: 23°F , -5°C
Dew Point: 16°F , -9°C
Humidity: 55%
Barometer: 30.54 inHg , 1034.2 hPa
Clouds: Clear
Visibility: 10 miles , 16 km
2020/01/22 13:52 KDCA 221352Z 35006KT 10SM CLR M01/M09 A3054 RMK AO2 SLP342 T10111094
 
KNUI - Webster Naval, Maryland, USA
Distance from station: SE 31mi, 49km
Updated: Wed, 22-Jan-2020 8:53am EST
Clear
Clear
 Wind from varies
Wind: varies 5 mph , 7 km/h
Temperature: 32°F , 0°C
Wind Chill: 27°F , -3°C
Dew Point: 19°F , -7°C
Humidity: 60%
Barometer: 30.51 inHg , 1033.2 hPa
Clouds: Clear
Visibility: 10 miles , 16 km
2020/01/22 13:53 KNUI 221353Z AUTO VRB04KT 10SM CLR 00/M07 A3051 RMK AO2 SLP332 T00001067
KNAK - Annapolis/Naval, Maryland, USA
Distance from station: NNE 44mi, 70km
Updated: Wed, 22-Jan-2020 8:54am EST
Clear
Clear
 Wind from calm
Wind: Calm
Temperature: 28°F , -2°C
Dew Point: 16°F , -9°C
Humidity: 59%
Barometer: 30.53 inHg , 1033.9 hPa
Clouds: Clear
Visibility: 10 miles , 16 km
2020/01/22 13:54 KNAK 221354Z AUTO 00000KT 10SM CLR M02/M09 A3053 RMK AO2 SLP340 T10221089